sensor_id;sensor_type;location;lat;lon;timestamp;P1;P2;P0
72793;PMS5003;63436;26.334;50.194;2023-04-24T00:00:08;68;68;
72793;PMS5003;63436;26.334;50.194;2023-04-24T00:02:33;81;79;
72793;PMS5003;63436;26.334;50.194;2023-04-24T00:04:58;81;78;
72793;PMS5003;63436;26.334;50.194;2023-04-24T00:07:29;79;74;
72793;PMS5003;63436;26.334;50.194;2023-04-24T00:09:49;85;78;
72793;PMS5003;63436;26.334;50.194;2023-04-24T00:12:15;82;78;
72793;PMS5003;63436;26.334;50.194;2023-04-24T00:14:40;75;75;
72793;PMS5003;63436;26.334;50.194;2023-04-24T00:17:06;76;72;
72793;PMS5003;63436;26.334;50.194;2023-04-24T00:19:31;78;77;
72793;PMS5003;63436;26.334;50.194;2023-04-24T00:21:57;76;71;
72793;PMS5003;63436;26.334;50.194;2023-04-24T00:24:22;76;70;
72793;PMS5003;63436;26.334;50.194;2023-04-24T00:26:48;86;84;
72793;PMS5003;63436;26.334;50.194;2023-04-24T00:29:14;78;74;
72793;PMS5003;63436;26.334;50.194;2023-04-24T00:31:39;78;75;
72793;PMS5003;63436;26.334;50.194;2023-04-24T00:34:05;81;76;
72793;PMS5003;63436;26.334;50.194;2023-04-24T00:36:30;82;76;
72793;PMS5003;63436;26.334;50.194;2023-04-24T00:38:57;75;70;
72793;PMS5003;63436;26.334;50.194;2023-04-24T00:41:21;77;76;
72793;PMS5003;63436;26.334;50.194;2023-04-24T00:43:47;77;77;
72793;PMS5003;63436;26.334;50.194;2023-04-24T00:46:12;69;69;
72793;PMS5003;63436;26.334;50.194;2023-04-24T00:48:37;82;79;
72793;PMS5003;63436;26.334;50.194;2023-04-24T00:51:03;75;71;
72793;PMS5003;63436;26.334;50.194;2023-04-24T00:53:28;72;72;
72793;PMS5003;63436;26.334;50.194;2023-04-24T00:55:54;70;67;
72793;PMS5003;63436;26.334;50.194;2023-04-24T00:58:19;63;63;
72793;PMS5003;63436;26.334;50.194;2023-04-24T01:00:44;67;65;
72793;PMS5003;63436;26.334;50.194;2023-04-24T01:03:10;73;64;
72793;PMS5003;63436;26.334;50.194;2023-04-24T01:05:35;75;72;
72793;PMS5003;63436;26.334;50.194;2023-04-24T01:08:00;71;70;
72793;PMS5003;63436;26.334;50.194;2023-04-24T01:10:26;70;67;
72793;PMS5003;63436;26.334;50.194;2023-04-24T01:12:52;73;67;
72793;PMS5003;63436;26.334;50.194;2023-04-24T01:15:17;66;64;
72793;PMS5003;63436;26.334;50.194;2023-04-24T01:17:42;67;66;
72793;PMS5003;63436;26.334;50.194;2023-04-24T01:20:09;69;64;
72793;PMS5003;63436;26.334;50.194;2023-04-24T01:22:34;70;68;
72793;PMS5003;63436;26.334;50.194;2023-04-24T01:24:59;64;63;
72793;PMS5003;63436;26.334;50.194;2023-04-24T01:27:25;61;61;
72793;PMS5003;63436;26.334;50.194;2023-04-24T01:29:51;69;67;
72793;PMS5003;63436;26.334;50.194;2023-04-24T01:32:16;72;66;
72793;PMS5003;63436;26.334;50.194;2023-04-24T01:34:47;68;68;
72793;PMS5003;63436;26.334;50.194;2023-04-24T01:37:07;64;61;
72793;PMS5003;63436;26.334;50.194;2023-04-24T01:39:32;64;60;
72793;PMS5003;63436;26.334;50.194;2023-04-24T01:41:59;61;58;
72793;PMS5003;63436;26.334;50.194;2023-04-24T01:44:30;62;58;
72793;PMS5003;63436;26.334;50.194;2023-04-24T01:46:49;63;63;
72793;PMS5003;63436;26.334;50.194;2023-04-24T01:49:15;62;61;
72793;PMS5003;63436;26.334;50.194;2023-04-24T01:51:41;60;60;
72793;PMS5003;63436;26.334;50.194;2023-04-24T01:54:05;67;66;
72793;PMS5003;63436;26.334;50.194;2023-04-24T01:56:32;64;63;
72793;PMS5003;63436;26.334;50.194;2023-04-24T01:58:58;64;60;
72793;PMS5003;63436;26.334;50.194;2023-04-24T02:01:23;54;54;
72793;PMS5003;63436;26.334;50.194;2023-04-24T02:03:48;60;56;
72793;PMS5003;63436;26.334;50.194;2023-04-24T02:06:13;57;56;
72793;PMS5003;63436;26.334;50.194;2023-04-24T02:08:39;50;47;
72793;PMS5003;63436;26.334;50.194;2023-04-24T02:11:05;54;50;
72793;PMS5003;63436;26.334;50.194;2023-04-24T02:13:30;48;48;
72793;PMS5003;63436;26.334;50.194;2023-04-24T02:16:00;46;45;
72793;PMS5003;63436;26.334;50.194;2023-04-24T02:18:21;44;44;
72793;PMS5003;63436;26.334;50.194;2023-04-24T02:20:46;50;47;
72793;PMS5003;63436;26.334;50.194;2023-04-24T02:23:12;47;42;
72793;PMS5003;63436;26.334;50.194;2023-04-24T02:25:38;43;41;
72793;PMS5003;63436;26.334;50.194;2023-04-24T02:28:03;40;38;
72793;PMS5003;63436;26.334;50.194;2023-04-24T02:30:29;41;41;
72793;PMS5003;63436;26.334;50.194;2023-04-24T02:32:54;42;42;
72793;PMS5003;63436;26.334;50.194;2023-04-24T02:35:19;45;41;
72793;PMS5003;63436;26.334;50.194;2023-04-24T02:37:45;40;36;
72793;PMS5003;63436;26.334;50.194;2023-04-24T02:40:10;39;37;
72793;PMS5003;63436;26.334;50.194;2023-04-24T02:42:36;41;41;
72793;PMS5003;63436;26.334;50.194;2023-04-24T02:45:01;40;38;
72793;PMS5003;63436;26.334;50.194;2023-04-24T02:47:26;46;42;
72793;PMS5003;63436;26.334;50.194;2023-04-24T02:49:51;43;39;
72793;PMS5003;63436;26.334;50.194;2023-04-24T02:52:17;40;37;
72793;PMS5003;63436;26.334;50.194;2023-04-24T02:54:42;43;38;
72793;PMS5003;63436;26.334;50.194;2023-04-24T02:57:08;35;34;
72793;PMS5003;63436;26.334;50.194;2023-04-24T02:59:33;43;39;
72793;PMS5003;63436;26.334;50.194;2023-04-24T03:01:59;40;39;
72793;PMS5003;63436;26.334;50.194;2023-04-24T03:04:24;39;36;
72793;PMS5003;63436;26.334;50.194;2023-04-24T03:06:49;39;38;
72793;PMS5003;63436;26.334;50.194;2023-04-24T03:09:17;43;40;
72793;PMS5003;63436;26.334;50.194;2023-04-24T03:11:40;37;37;
72793;PMS5003;63436;26.334;50.194;2023-04-24T03:14:04;39;32;
72793;PMS5003;63436;26.334;50.194;2023-04-24T03:16:31;35;34;
72793;PMS5003;63436;26.334;50.194;2023-04-24T03:18:56;33;33;
72793;PMS5003;63436;26.334;50.194;2023-04-24T03:21:21;32;30;
72793;PMS5003;63436;26.334;50.194;2023-04-24T03:23:47;34;30;
72793;PMS5003;63436;26.334;50.194;2023-04-24T03:26:13;31;30;
72793;PMS5003;63436;26.334;50.194;2023-04-24T03:28:38;33;33;
72793;PMS5003;63436;26.334;50.194;2023-04-24T03:31:03;34;30;
72793;PMS5003;63436;26.334;50.194;2023-04-24T03:33:29;33;30;
72793;PMS5003;63436;26.334;50.194;2023-04-24T03:35:54;35;33;
72793;PMS5003;63436;26.334;50.194;2023-04-24T03:38:20;32;30;
72793;PMS5003;63436;26.334;50.194;2023-04-24T03:40:45;32;30;
72793;PMS5003;63436;26.334;50.194;2023-04-24T03:43:10;32;30;
72793;PMS5003;63436;26.334;50.194;2023-04-24T03:45:37;34;30;
72793;PMS5003;63436;26.334;50.194;2023-04-24T03:48:01;33;33;
72793;PMS5003;63436;26.334;50.194;2023-04-24T03:50:27;29;27;
72793;PMS5003;63436;26.334;50.194;2023-04-24T03:52:52;27;26;
72793;PMS5003;63436;26.334;50.194;2023-04-24T03:55:17;30;29;
72793;PMS5003;63436;26.334;50.194;2023-04-24T03:57:42;28;25;
72793;PMS5003;63436;26.334;50.194;2023-04-24T04:00:09;29;28;
72793;PMS5003;63436;26.334;50.194;2023-04-24T04:02:34;26;25;
72793;PMS5003;63436;26.334;50.194;2023-04-24T04:04:59;23;22;
72793;PMS5003;63436;26.334;50.194;2023-04-24T04:07:26;22;22;
72793;PMS5003;63436;26.334;50.194;2023-04-24T04:09:50;25;25;
72793;PMS5003;63436;26.334;50.194;2023-04-24T04:12:16;23;23;
72793;PMS5003;63436;26.334;50.194;2023-04-24T04:14:42;27;26;
72793;PMS5003;63436;26.334;50.194;2023-04-24T04:17:07;24;24;
72793;PMS5003;63436;26.334;50.194;2023-04-24T04:19:32;28;25;
72793;PMS5003;63436;26.334;50.194;2023-04-24T04:21:59;27;25;
72793;PMS5003;63436;26.334;50.194;2023-04-24T04:24:24;25;24;
72793;PMS5003;63436;26.334;50.194;2023-04-24T04:26:49;26;26;
72793;PMS5003;63436;26.334;50.194;2023-04-24T04:29:14;27;25;
72793;PMS5003;63436;26.334;50.194;2023-04-24T04:31:39;25;25;
72793;PMS5003;63436;26.334;50.194;2023-04-24T04:34:04;28;25;
72793;PMS5003;63436;26.334;50.194;2023-04-24T04:36:30;27;24;
72793;PMS5003;63436;26.334;50.194;2023-04-24T04:38:56;27;25;
72793;PMS5003;63436;26.334;50.194;2023-04-24T04:41:21;27;25;
72793;PMS5003;63436;26.334;50.194;2023-04-24T04:43:47;30;30;
72793;PMS5003;63436;26.334;50.194;2023-04-24T04:46:12;25;24;
72793;PMS5003;63436;26.334;50.194;2023-04-24T04:48:37;31;28;
72793;PMS5003;63436;26.334;50.194;2023-04-24T04:51:03;28;26;
72793;PMS5003;63436;26.334;50.194;2023-04-24T04:53:28;27;25;
72793;PMS5003;63436;26.334;50.194;2023-04-24T04:55:54;27;25;
72793;PMS5003;63436;26.334;50.194;2023-04-24T04:58:20;29;27;
72793;PMS5003;63436;26.334;50.194;2023-04-24T05:00:45;28;28;
72793;PMS5003;63436;26.334;50.194;2023-04-24T05:03:10;29;28;
72793;PMS5003;63436;26.334;50.194;2023-04-24T05:05:36;28;26;
72793;PMS5003;63436;26.334;50.194;2023-04-24T05:08:01;31;27;
72793;PMS5003;63436;26.334;50.194;2023-04-24T05:10:26;31;25;
72793;PMS5003;63436;26.334;50.194;2023-04-24T05:12:53;40;34;
72793;PMS5003;63436;26.334;50.194;2023-04-24T05:15:17;36;31;
72793;PMS5003;63436;26.334;50.194;2023-04-24T05:17:43;35;31;
72793;PMS5003;63436;26.334;50.194;2023-04-24T05:20:09;27;27;
72793;PMS5003;63436;26.334;50.194;2023-04-24T05:22:34;29;26;
72793;PMS5003;63436;26.334;50.194;2023-04-24T05:25:00;33;28;
72793;PMS5003;63436;26.334;50.194;2023-04-24T05:27:26;30;28;
72793;PMS5003;63436;26.334;50.194;2023-04-24T05:29:50;30;27;
72793;PMS5003;63436;26.334;50.194;2023-04-24T05:32:16;33;30;
72793;PMS5003;63436;26.334;50.194;2023-04-24T05:34:43;42;38;
72793;PMS5003;63436;26.334;50.194;2023-04-24T05:37:07;31;29;
72793;PMS5003;63436;26.334;50.194;2023-04-24T05:39:32;35;31;
72793;PMS5003;63436;26.334;50.194;2023-04-24T05:41:58;42;36;
72793;PMS5003;63436;26.334;50.194;2023-04-24T05:44:23;41;38;
72793;PMS5003;63436;26.334;50.194;2023-04-24T05:46:49;76;60;
72793;PMS5003;63436;26.334;50.194;2023-04-24T05:49:15;40;35;
72793;PMS5003;63436;26.334;50.194;2023-04-24T05:51:40;40;38;
72793;PMS5003;63436;26.334;50.194;2023-04-24T05:54:05;39;38;
72793;PMS5003;63436;26.334;50.194;2023-04-24T05:56:31;38;35;
72793;PMS5003;63436;26.334;50.194;2023-04-24T05:59:01;37;33;
72793;PMS5003;63436;26.334;50.194;2023-04-24T06:01:22;40;36;
72793;PMS5003;63436;26.334;50.194;2023-04-24T06:03:48;41;38;
72793;PMS5003;63436;26.334;50.194;2023-04-24T06:06:13;36;27;
72793;PMS5003;63436;26.334;50.194;2023-04-24T06:08:38;40;37;
72793;PMS5003;63436;26.334;50.194;2023-04-24T06:11:03;43;38;
72793;PMS5003;63436;26.334;50.194;2023-04-24T06:13:29;40;36;
72793;PMS5003;63436;26.334;50.194;2023-04-24T06:15:54;46;42;
72793;PMS5003;63436;26.334;50.194;2023-04-24T06:18:19;33;29;
72793;PMS5003;63436;26.334;50.194;2023-04-24T06:20:45;41;35;
72793;PMS5003;63436;26.334;50.194;2023-04-24T06:23:10;35;34;
72793;PMS5003;63436;26.334;50.194;2023-04-24T06:25:36;35;33;
72793;PMS5003;63436;26.334;50.194;2023-04-24T06:28:01;39;37;
72793;PMS5003;63436;26.334;50.194;2023-04-24T06:30:27;34;32;
72793;PMS5003;63436;26.334;50.194;2023-04-24T06:32:52;40;35;
72793;PMS5003;63436;26.334;50.194;2023-04-24T06:35:17;34;33;
72793;PMS5003;63436;26.334;50.194;2023-04-24T06:37:43;43;35;
72793;PMS5003;63436;26.334;50.194;2023-04-24T06:40:09;47;39;
72793;PMS5003;63436;26.334;50.194;2023-04-24T06:42:34;48;41;
72793;PMS5003;63436;26.334;50.194;2023-04-24T06:44:59;42;35;
72793;PMS5003;63436;26.334;50.194;2023-04-24T06:47:26;39;35;
72793;PMS5003;63436;26.334;50.194;2023-04-24T06:49:51;47;35;
72793;PMS5003;63436;26.334;50.194;2023-04-24T06:52:16;35;33;
72793;PMS5003;63436;26.334;50.194;2023-04-24T06:54:41;31;30;
72793;PMS5003;63436;26.334;50.194;2023-04-24T06:57:12;38;34;
72793;PMS5003;63436;26.334;50.194;2023-04-24T06:59:32;30;26;
72793;PMS5003;63436;26.334;50.194;2023-04-24T07:01:57;28;24;
72793;PMS5003;63436;26.334;50.194;2023-04-24T07:04:23;31;28;
72793;PMS5003;63436;26.334;50.194;2023-04-24T07:06:48;34;28;
72793;PMS5003;63436;26.334;50.194;2023-04-24T07:09:13;27;25;
72793;PMS5003;63436;26.334;50.194;2023-04-24T07:11:39;29;27;
72793;PMS5003;63436;26.334;50.194;2023-04-24T07:14:04;29;25;
72793;PMS5003;63436;26.334;50.194;2023-04-24T07:16:30;26;25;
72793;PMS5003;63436;26.334;50.194;2023-04-24T07:18:55;23;23;
72793;PMS5003;63436;26.334;50.194;2023-04-24T07:21:20;29;24;
72793;PMS5003;63436;26.334;50.194;2023-04-24T07:23:46;26;22;
72793;PMS5003;63436;26.334;50.194;2023-04-24T07:26:10;24;23;
72793;PMS5003;63436;26.334;50.194;2023-04-24T07:28:35;24;20;
72793;PMS5003;63436;26.334;50.194;2023-04-24T07:31:01;30;28;
72793;PMS5003;63436;26.334;50.194;2023-04-24T07:33:27;29;26;
72793;PMS5003;63436;26.334;50.194;2023-04-24T07:35:52;27;27;
72793;PMS5003;63436;26.334;50.194;2023-04-24T07:38:18;27;24;
72793;PMS5003;63436;26.334;50.194;2023-04-24T07:40:43;27;21;
72793;PMS5003;63436;26.334;50.194;2023-04-24T07:43:08;28;27;
72793;PMS5003;63436;26.334;50.194;2023-04-24T07:45:33;24;23;
72793;PMS5003;63436;26.334;50.194;2023-04-24T07:47:59;23;21;
72793;PMS5003;63436;26.334;50.194;2023-04-24T07:50:24;22;19;
72793;PMS5003;63436;26.334;50.194;2023-04-24T07:52:50;28;24;
72793;PMS5003;63436;26.334;50.194;2023-04-24T07:55:15;27;25;
72793;PMS5003;63436;26.334;50.194;2023-04-24T07:57:41;27;26;
72793;PMS5003;63436;26.334;50.194;2023-04-24T08:00:07;26;25;
72793;PMS5003;63436;26.334;50.194;2023-04-24T08:02:32;28;26;
72793;PMS5003;63436;26.334;50.194;2023-04-24T08:04:57;32;28;
72793;PMS5003;63436;26.334;50.194;2023-04-24T08:07:22;28;26;
72793;PMS5003;63436;26.334;50.194;2023-04-24T08:09:48;28;28;
72793;PMS5003;63436;26.334;50.194;2023-04-24T08:12:13;31;31;
72793;PMS5003;63436;26.334;50.194;2023-04-24T08:14:38;28;26;
72793;PMS5003;63436;26.334;50.194;2023-04-24T08:17:03;28;26;
72793;PMS5003;63436;26.334;50.194;2023-04-24T08:19:28;27;26;
72793;PMS5003;63436;26.334;50.194;2023-04-24T08:21:54;28;27;
72793;PMS5003;63436;26.334;50.194;2023-04-24T08:24:19;35;29;
72793;PMS5003;63436;26.334;50.194;2023-04-24T08:26:45;33;30;
72793;PMS5003;63436;26.334;50.194;2023-04-24T08:29:11;38;33;
72793;PMS5003;63436;26.334;50.194;2023-04-24T08:31:36;36;33;
72793;PMS5003;63436;26.334;50.194;2023-04-24T08:34:02;34;28;
72793;PMS5003;63436;26.334;50.194;2023-04-24T08:36:28;33;29;
72793;PMS5003;63436;26.334;50.194;2023-04-24T08:38:53;39;34;
72793;PMS5003;63436;26.334;50.194;2023-04-24T08:41:18;35;29;
72793;PMS5003;63436;26.334;50.194;2023-04-24T08:43:43;33;27;
72793;PMS5003;63436;26.334;50.194;2023-04-24T08:46:08;26;26;
72793;PMS5003;63436;26.334;50.194;2023-04-24T08:48:34;33;31;
72793;PMS5003;63436;26.334;50.194;2023-04-24T08:51:00;35;32;
72793;PMS5003;63436;26.334;50.194;2023-04-24T08:53:25;34;31;
72793;PMS5003;63436;26.334;50.194;2023-04-24T08:55:50;30;27;
72793;PMS5003;63436;26.334;50.194;2023-04-24T08:58:16;31;30;
72793;PMS5003;63436;26.334;50.194;2023-04-24T09:00:40;33;29;
72793;PMS5003;63436;26.334;50.194;2023-04-24T09:03:06;32;31;
72793;PMS5003;63436;26.334;50.194;2023-04-24T09:05:31;31;29;
72793;PMS5003;63436;26.334;50.194;2023-04-24T09:07:57;35;33;
72793;PMS5003;63436;26.334;50.194;2023-04-24T09:10:23;43;41;
72793;PMS5003;63436;26.334;50.194;2023-04-24T09:12:47;37;37;
72793;PMS5003;63436;26.334;50.194;2023-04-24T09:15:12;35;34;
72793;PMS5003;63436;26.334;50.194;2023-04-24T09:17:38;37;37;
72793;PMS5003;63436;26.334;50.194;2023-04-24T09:20:04;35;35;
72793;PMS5003;63436;26.334;50.194;2023-04-24T09:22:29;41;38;
72793;PMS5003;63436;26.334;50.194;2023-04-24T09:27:19;43;43;
72793;PMS5003;63436;26.334;50.194;2023-04-24T09:32:19;0;0;
72793;PMS5003;63436;26.334;50.194;2023-04-24T09:34:36;0;0;
72793;PMS5003;63436;26.334;50.194;2023-04-24T09:37:02;0;0;
72793;PMS5003;63436;26.334;50.194;2023-04-24T09:39:28;0;0;
72793;PMS5003;63436;26.334;50.194;2023-04-24T09:41:54;0;0;
72793;PMS5003;63436;26.334;50.194;2023-04-24T09:44:20;0;0;
72793;PMS5003;63436;26.334;50.194;2023-04-24T09:46:46;0;0;
72793;PMS5003;63436;26.334;50.194;2023-04-24T09:49:12;0;0;
72793;PMS5003;63436;26.334;50.194;2023-04-24T09:51:37;0;0;
72793;PMS5003;63436;26.334;50.194;2023-04-24T09:54:02;0;0;
72793;PMS5003;63436;26.334;50.194;2023-04-24T09:56:28;0;0;
72793;PMS5003;63436;26.334;50.194;2023-04-24T09:58:53;0;0;
72793;PMS5003;63436;26.334;50.194;2023-04-24T10:03:45;0;0;
72793;PMS5003;63436;26.334;50.194;2023-04-24T10:06:13;0;0;
72793;PMS5003;63436;26.334;50.194;2023-04-24T10:08:37;0;0;
72793;PMS5003;63436;26.334;50.194;2023-04-24T10:11:02;0;0;
72793;PMS5003;63436;26.334;50.194;2023-04-24T10:13:28;0;0;
72793;PMS5003;63436;26.334;50.194;2023-04-24T10:15:54;0;0;
72793;PMS5003;63436;26.334;50.194;2023-04-24T10:18:19;0;0;
72793;PMS5003;63436;26.334;50.194;2023-04-24T10:20:45;0;0;
72793;PMS5003;63436;26.334;50.194;2023-04-24T10:23:11;0;0;
72793;PMS5003;63436;26.334;50.194;2023-04-24T10:25:36;0;0;
72793;PMS5003;63436;26.334;50.194;2023-04-24T10:28:02;0;0;
72793;PMS5003;63436;26.334;50.194;2023-04-24T10:30:29;0;0;
72793;PMS5003;63436;26.334;50.194;2023-04-24T10:32:53;0;0;
72793;PMS5003;63436;26.334;50.194;2023-04-24T10:35:19;0;0;
72793;PMS5003;63436;26.334;50.194;2023-04-24T10:37:46;0;0;
72793;PMS5003;63436;26.334;50.194;2023-04-24T10:40:11;0;0;
72793;PMS5003;63436;26.334;50.194;2023-04-24T10:42:40;0;0;
72793;PMS5003;63436;26.334;50.194;2023-04-24T10:45:04;0;0;
72793;PMS5003;63436;26.334;50.194;2023-04-24T10:47:28;0;0;
72793;PMS5003;63436;26.334;50.194;2023-04-24T10:49:54;0;0;
72793;PMS5003;63436;26.334;50.194;2023-04-24T10:52:20;0;0;
72793;PMS5003;63436;26.334;50.194;2023-04-24T10:54:46;0;0;
72793;PMS5003;63436;26.334;50.194;2023-04-24T10:59:36;0;0;
72793;PMS5003;63436;26.334;50.194;2023-04-24T11:02:02;0;0;
72793;PMS5003;63436;26.334;50.194;2023-04-24T11:04:29;0;0;
72793;PMS5003;63436;26.334;50.194;2023-04-24T11:06:54;0;0;
72793;PMS5003;63436;26.334;50.194;2023-04-24T11:09:19;0;0;
72793;PMS5003;63436;26.334;50.194;2023-04-24T11:11:46;0;0;
72793;PMS5003;63436;26.334;50.194;2023-04-24T11:14:13;0;0;
72793;PMS5003;63436;26.334;50.194;2023-04-24T11:16:42;0;0;
72793;PMS5003;63436;26.334;50.194;2023-04-24T11:19:08;0;0;
72793;PMS5003;63436;26.334;50.194;2023-04-24T11:21:31;0;0;
72793;PMS5003;63436;26.334;50.194;2023-04-24T11:23:58;0;0;
72793;PMS5003;63436;26.334;50.194;2023-04-24T11:26:22;0;0;
72793;PMS5003;63436;26.334;50.194;2023-04-24T11:28:46;0;0;
72793;PMS5003;63436;26.334;50.194;2023-04-24T11:33:37;0;0;
72793;PMS5003;63436;26.334;50.194;2023-04-24T11:36:02;0;0;
72793;PMS5003;63436;26.334;50.194;2023-04-24T11:38:28;0;0;
72793;PMS5003;63436;26.334;50.194;2023-04-24T11:40:54;0;0;
72793;PMS5003;63436;26.334;50.194;2023-04-24T11:43:19;0;0;
72793;PMS5003;63436;26.334;50.194;2023-04-24T11:45:48;0;0;
72793;PMS5003;63436;26.334;50.194;2023-04-24T11:46:39;0;0;
72793;PMS5003;63436;26.334;50.194;2023-04-24T11:49:05;60;60;
72793;PMS5003;63436;26.334;50.194;2023-04-24T11:51:31;66;66;
72793;PMS5003;63436;26.334;50.194;2023-04-24T11:53:57;30;30;
72793;PMS5003;63436;26.334;50.194;2023-04-24T11:56:22;43;43;
72793;PMS5003;63436;26.334;50.194;2023-04-24T11:58:47;34;34;
72793;PMS5003;63436;26.334;50.194;2023-04-24T12:01:13;37;37;
72793;PMS5003;63436;26.334;50.194;2023-04-24T12:03:37;24;24;
72793;PMS5003;63436;26.334;50.194;2023-04-24T12:06:05;42;42;
72793;PMS5003;63436;26.334;50.194;2023-04-24T12:08:29;42;42;
72793;PMS5003;63436;26.334;50.194;2023-04-24T12:10:54;46;46;
72793;PMS5003;63436;26.334;50.194;2023-04-24T12:13:20;51;51;
72793;PMS5003;63436;26.334;50.194;2023-04-24T12:15:46;63;63;
72793;PMS5003;63436;26.334;50.194;2023-04-24T12:18:12;40;40;
72793;PMS5003;63436;26.334;50.194;2023-04-24T12:20:40;43;43;
72793;PMS5003;63436;26.334;50.194;2023-04-24T12:23:03;21;21;
72793;PMS5003;63436;26.334;50.194;2023-04-24T12:25:28;6;6;
72793;PMS5003;63436;26.334;50.194;2023-04-24T12:27:55;3;3;
72793;PMS5003;63436;26.334;50.194;2023-04-24T12:30:19;39;39;
72793;PMS5003;63436;26.334;50.194;2023-04-24T12:32:46;42;42;
72793;PMS5003;63436;26.334;50.194;2023-04-24T12:35:10;0;0;
72793;PMS5003;63436;26.334;50.194;2023-04-24T12:37:35;13;13;
72793;PMS5003;63436;26.334;50.194;2023-04-24T12:40:02;25;25;
72793;PMS5003;63436;26.334;50.194;2023-04-24T12:42:26;9;9;
72793;PMS5003;63436;26.334;50.194;2023-04-24T12:44:55;7;7;
72793;PMS5003;63436;26.334;50.194;2023-04-24T12:47:18;48;48;
72793;PMS5003;63436;26.334;50.194;2023-04-24T12:49:44;40;40;
72793;PMS5003;63436;26.334;50.194;2023-04-24T12:52:09;0;0;
72793;PMS5003;63436;26.334;50.194;2023-04-24T12:54:34;51;51;
72793;PMS5003;63436;26.334;50.194;2023-04-24T12:57:00;0;0;
72793;PMS5003;63436;26.334;50.194;2023-04-24T12:59:26;31;31;
72793;PMS5003;63436;26.334;50.194;2023-04-24T13:01:51;0;0;
72793;PMS5003;63436;26.334;50.194;2023-04-24T13:04:16;0;0;
72793;PMS5003;63436;26.334;50.194;2023-04-24T13:06:41;0;0;
72793;PMS5003;63436;26.334;50.194;2023-04-24T13:09:07;0;0;
72793;PMS5003;63436;26.334;50.194;2023-04-24T13:11:33;55;55;
72793;PMS5003;63436;26.334;50.194;2023-04-24T13:13:58;1;1;
72793;PMS5003;63436;26.334;50.194;2023-04-24T13:16:23;6;6;
72793;PMS5003;63436;26.334;50.194;2023-04-24T13:18:48;0;0;
72793;PMS5003;63436;26.334;50.194;2023-04-24T13:21:14;0;0;
72793;PMS5003;63436;26.334;50.194;2023-04-24T13:23:39;39;39;
72793;PMS5003;63436;26.334;50.194;2023-04-24T13:26:05;7;7;
72793;PMS5003;63436;26.334;50.194;2023-04-24T13:28:31;0;0;
72793;PMS5003;63436;26.334;50.194;2023-04-24T13:30:57;0;0;
72793;PMS5003;63436;26.334;50.194;2023-04-24T13:33:22;0;0;
72793;PMS5003;63436;26.334;50.194;2023-04-24T13:35:48;1;1;
72793;PMS5003;63436;26.334;50.194;2023-04-24T13:38:13;7;7;
72793;PMS5003;63436;26.334;50.194;2023-04-24T13:40:38;1;1;
72793;PMS5003;63436;26.334;50.194;2023-04-24T13:43:04;42;42;
72793;PMS5003;63436;26.334;50.194;2023-04-24T13:45:29;0;0;
72793;PMS5003;63436;26.334;50.194;2023-04-24T13:47:54;9;9;
72793;PMS5003;63436;26.334;50.194;2023-04-24T13:50:19;9;9;
72793;PMS5003;63436;26.334;50.194;2023-04-24T13:52:45;55;55;
72793;PMS5003;63436;26.334;50.194;2023-04-24T13:55:10;9;9;
72793;PMS5003;63436;26.334;50.194;2023-04-24T13:57:36;0;0;
72793;PMS5003;63436;26.334;50.194;2023-04-24T14:00:02;49;49;
72793;PMS5003;63436;26.334;50.194;2023-04-24T14:02:27;0;0;
72793;PMS5003;63436;26.334;50.194;2023-04-24T14:04:54;45;45;
72793;PMS5003;63436;26.334;50.194;2023-04-24T14:07:20;6;6;
72793;PMS5003;63436;26.334;50.194;2023-04-24T14:09:46;0;0;
72793;PMS5003;63436;26.334;50.194;2023-04-24T14:12:12;46;46;
72793;PMS5003;63436;26.334;50.194;2023-04-24T14:14:36;0;0;
72793;PMS5003;63436;26.334;50.194;2023-04-24T14:17:02;0;0;
72793;PMS5003;63436;26.334;50.194;2023-04-24T14:19:27;1;1;
72793;PMS5003;63436;26.334;50.194;2023-04-24T14:21:54;48;48;
72793;PMS5003;63436;26.334;50.194;2023-04-24T14:24:19;0;0;
72793;PMS5003;63436;26.334;50.194;2023-04-24T14:26:44;0;0;
72793;PMS5003;63436;26.334;50.194;2023-04-24T14:29:09;31;31;
72793;PMS5003;63436;26.334;50.194;2023-04-24T14:31:35;49;49;
72793;PMS5003;63436;26.334;50.194;2023-04-24T14:34:00;0;0;
72793;PMS5003;63436;26.334;50.194;2023-04-24T14:36:26;0;0;
72793;PMS5003;63436;26.334;50.194;2023-04-24T14:38:51;0;0;
72793;PMS5003;63436;26.334;50.194;2023-04-24T14:41:16;46;46;
72793;PMS5003;63436;26.334;50.194;2023-04-24T14:43:42;3;3;
72793;PMS5003;63436;26.334;50.194;2023-04-24T14:46:07;43;43;
72793;PMS5003;63436;26.334;50.194;2023-04-24T14:48:34;0;0;
72793;PMS5003;63436;26.334;50.194;2023-04-24T14:50:58;40;40;
72793;PMS5003;63436;26.334;50.194;2023-04-24T14:53:24;22;22;
72793;PMS5003;63436;26.334;50.194;2023-04-24T14:55:50;0;0;
72793;PMS5003;63436;26.334;50.194;2023-04-24T14:58:15;55;55;
72793;PMS5003;63436;26.334;50.194;2023-04-24T15:00:41;0;0;
72793;PMS5003;63436;26.334;50.194;2023-04-24T15:03:06;52;52;
72793;PMS5003;63436;26.334;50.194;2023-04-24T15:05:31;0;0;
72793;PMS5003;63436;26.334;50.194;2023-04-24T15:07:56;55;55;
72793;PMS5003;63436;26.334;50.194;2023-04-24T15:10:22;0;0;
72793;PMS5003;63436;26.334;50.194;2023-04-24T15:12:46;0;0;
72793;PMS5003;63436;26.334;50.194;2023-04-24T15:15:12;63;63;
72793;PMS5003;63436;26.334;50.194;2023-04-24T15:17:37;0;0;
72793;PMS5003;63436;26.334;50.194;2023-04-24T15:20:03;49;49;
72793;PMS5003;63436;26.334;50.194;2023-04-24T15:22:28;0;0;
72793;PMS5003;63436;26.334;50.194;2023-04-24T15:25:00;43;43;
72793;PMS5003;63436;26.334;50.194;2023-04-24T15:27:19;0;0;
72793;PMS5003;63436;26.334;50.194;2023-04-24T15:29:45;45;45;
72793;PMS5003;63436;26.334;50.194;2023-04-24T15:32:11;1;1;
72793;PMS5003;63436;26.334;50.194;2023-04-24T15:34:36;51;51;
72793;PMS5003;63436;26.334;50.194;2023-04-24T15:35:43;0;0;
72793;PMS5003;63436;26.334;50.194;2023-04-24T15:38:09;42;42;
72793;PMS5003;63436;26.334;50.194;2023-04-24T15:40:35;49;49;
72793;PMS5003;63436;26.334;50.194;2023-04-24T15:43:00;48;48;
72793;PMS5003;63436;26.334;50.194;2023-04-24T15:45:26;40;40;
72793;PMS5003;63436;26.334;50.194;2023-04-24T15:47:51;30;30;
72793;PMS5003;63436;26.334;50.194;2023-04-24T15:50:16;34;34;
72793;PMS5003;63436;26.334;50.194;2023-04-24T15:52:43;34;34;
72793;PMS5003;63436;26.334;50.194;2023-04-24T15:55:08;39;39;
72793;PMS5003;63436;26.334;50.194;2023-04-24T15:57:33;40;40;
72793;PMS5003;63436;26.334;50.194;2023-04-24T15:59:59;43;43;
72793;PMS5003;63436;26.334;50.194;2023-04-24T16:02:24;39;39;
72793;PMS5003;63436;26.334;50.194;2023-04-24T16:04:49;15;15;